sensor_id;sensor_type;location;lat;lon;timestamp;P1;durP1;ratioP1;P2;durP2;ratioP2
28960;SDS011;16068;42.896;20.868;2023-07-31T00:01:59;7.90;;;4.55;;
28960;SDS011;16068;42.896;20.868;2023-07-31T00:04:46;6.10;;;4.60;;
28960;SDS011;16068;42.896;20.868;2023-07-31T00:07:32;5.47;;;4.05;;
28960;SDS011;16068;42.896;20.868;2023-07-31T00:10:18;5.13;;;4.43;;
28960;SDS011;16068;42.896;20.868;2023-07-31T00:13:04;5.70;;;4.63;;
28960;SDS011;16068;42.896;20.868;2023-07-31T00:15:50;6.22;;;4.60;;
28960;SDS011;16068;42.896;20.868;2023-07-31T00:18:36;7.70;;;4.47;;
28960;SDS011;16068;42.896;20.868;2023-07-31T00:21:22;9.15;;;4.97;;
28960;SDS011;16068;42.896;20.868;2023-07-31T00:24:09;5.50;;;4.65;;
28960;SDS011;16068;42.896;20.868;2023-07-31T00:26:59;7.03;;;4.68;;
28960;SDS011;16068;42.896;20.868;2023-07-31T00:30:02;10.27;;;4.35;;
28960;SDS011;16068;42.896;20.868;2023-07-31T00:32:51;5.57;;;4.53;;
28960;SDS011;16068;42.896;20.868;2023-07-31T00:35:36;5.50;;;4.47;;
28960;SDS011;16068;42.896;20.868;2023-07-31T00:38:25;6.43;;;4.95;;
28960;SDS011;16068;42.896;20.868;2023-07-31T00:41:11;5.47;;;4.57;;
28960;SDS011;16068;42.896;20.868;2023-07-31T00:43:57;6.68;;;4.70;;
28960;SDS011;16068;42.896;20.868;2023-07-31T00:46:45;7.35;;;4.50;;
28960;SDS011;16068;42.896;20.868;2023-07-31T00:49:31;7.72;;;5.30;;
28960;SDS011;16068;42.896;20.868;2023-07-31T00:52:18;9.73;;;5.30;;
28960;SDS011;16068;42.896;20.868;2023-07-31T00:55:05;10.52;;;4.85;;
28960;SDS011;16068;42.896;20.868;2023-07-31T00:57:52;6.38;;;5.05;;
28960;SDS011;16068;42.896;20.868;2023-07-31T01:00:44;7.32;;;4.68;;
28960;SDS011;16068;42.896;20.868;2023-07-31T01:03:30;6.60;;;4.68;;
28960;SDS011;16068;42.896;20.868;2023-07-31T01:06:33;9.40;;;5.10;;
28960;SDS011;16068;42.896;20.868;2023-07-31T01:09:40;7.63;;;4.88;;
28960;SDS011;16068;42.896;20.868;2023-07-31T01:12:31;8.05;;;4.95;;
28960;SDS011;16068;42.896;20.868;2023-07-31T01:15:17;8.10;;;4.85;;
28960;SDS011;16068;42.896;20.868;2023-07-31T01:18:03;10.98;;;5.05;;
28960;SDS011;16068;42.896;20.868;2023-07-31T01:20:54;7.57;;;5.25;;
28960;SDS011;16068;42.896;20.868;2023-07-31T01:23:51;6.40;;;5.05;;
28960;SDS011;16068;42.896;20.868;2023-07-31T01:26:59;7.63;;;4.88;;
28960;SDS011;16068;42.896;20.868;2023-07-31T01:29:56;9.10;;;4.65;;
28960;SDS011;16068;42.896;20.868;2023-07-31T01:32:48;10.98;;;4.72;;
28960;SDS011;16068;42.896;20.868;2023-07-31T01:35:35;6.82;;;4.50;;
28960;SDS011;16068;42.896;20.868;2023-07-31T01:38:23;6.95;;;4.97;;
28960;SDS011;16068;42.896;20.868;2023-07-31T01:41:09;9.73;;;5.13;;
28960;SDS011;16068;42.896;20.868;2023-07-31T01:43:55;7.68;;;4.35;;
28960;SDS011;16068;42.896;20.868;2023-07-31T01:46:41;10.00;;;4.72;;
28960;SDS011;16068;42.896;20.868;2023-07-31T01:49:28;6.05;;;4.72;;
28960;SDS011;16068;42.896;20.868;2023-07-31T01:52:14;11.35;;;4.80;;
28960;SDS011;16068;42.896;20.868;2023-07-31T01:55:00;8.00;;;5.13;;
28960;SDS011;16068;42.896;20.868;2023-07-31T01:57:47;10.32;;;4.68;;
28960;SDS011;16068;42.896;20.868;2023-07-31T02:00:34;7.25;;;5.10;;
28960;SDS011;16068;42.896;20.868;2023-07-31T02:03:20;7.22;;;4.60;;
28960;SDS011;16068;42.896;20.868;2023-07-31T02:06:06;6.68;;;5.07;;
28960;SDS011;16068;42.896;20.868;2023-07-31T02:08:52;7.53;;;5.18;;
28960;SDS011;16068;42.896;20.868;2023-07-31T02:11:38;10.05;;;4.80;;
28960;SDS011;16068;42.896;20.868;2023-07-31T02:14:24;6.20;;;4.50;;
28960;SDS011;16068;42.896;20.868;2023-07-31T02:17:10;7.25;;;4.68;;
28960;SDS011;16068;42.896;20.868;2023-07-31T02:19:59;7.13;;;4.85;;
28960;SDS011;16068;42.896;20.868;2023-07-31T02:22:46;10.43;;;4.30;;
28960;SDS011;16068;42.896;20.868;2023-07-31T02:25:32;6.15;;;4.10;;
28960;SDS011;16068;42.896;20.868;2023-07-31T02:28:18;6.95;;;4.35;;
28960;SDS011;16068;42.896;20.868;2023-07-31T02:31:04;10.00;;;4.80;;
28960;SDS011;16068;42.896;20.868;2023-07-31T02:33:50;8.80;;;4.75;;
28960;SDS011;16068;42.896;20.868;2023-07-31T02:36:36;9.77;;;4.53;;
28960;SDS011;16068;42.896;20.868;2023-07-31T02:39:22;9.60;;;4.50;;
28960;SDS011;16068;42.896;20.868;2023-07-31T02:42:08;7.03;;;4.40;;
28960;SDS011;16068;42.896;20.868;2023-07-31T02:44:55;5.90;;;4.43;;
28960;SDS011;16068;42.896;20.868;2023-07-31T02:47:41;8.30;;;4.53;;
28960;SDS011;16068;42.896;20.868;2023-07-31T02:50:27;7.40;;;4.20;;
28960;SDS011;16068;42.896;20.868;2023-07-31T02:53:14;8.57;;;4.63;;
28960;SDS011;16068;42.896;20.868;2023-07-31T02:56:00;5.75;;;4.10;;
28960;SDS011;16068;42.896;20.868;2023-07-31T02:58:46;9.85;;;3.90;;
28960;SDS011;16068;42.896;20.868;2023-07-31T03:01:32;8.68;;;4.28;;
28960;SDS011;16068;42.896;20.868;2023-07-31T03:04:18;10.32;;;4.30;;
28960;SDS011;16068;42.896;20.868;2023-07-31T03:07:05;7.00;;;4.07;;
28960;SDS011;16068;42.896;20.868;2023-07-31T03:09:51;8.45;;;4.18;;
28960;SDS011;16068;42.896;20.868;2023-07-31T03:12:41;6.10;;;3.90;;
28960;SDS011;16068;42.896;20.868;2023-07-31T03:15:27;6.78;;;3.83;;
28960;SDS011;16068;42.896;20.868;2023-07-31T03:18:15;9.75;;;4.93;;
28960;SDS011;16068;42.896;20.868;2023-07-31T03:21:02;10.50;;;4.40;;
28960;SDS011;16068;42.896;20.868;2023-07-31T03:23:48;10.52;;;4.47;;
28960;SDS011;16068;42.896;20.868;2023-07-31T03:26:33;10.02;;;4.47;;
28960;SDS011;16068;42.896;20.868;2023-07-31T03:29:21;8.75;;;4.82;;
28960;SDS011;16068;42.896;20.868;2023-07-31T03:32:10;8.90;;;4.45;;
28960;SDS011;16068;42.896;20.868;2023-07-31T03:34:57;8.52;;;4.97;;
28960;SDS011;16068;42.896;20.868;2023-07-31T03:37:43;10.48;;;4.82;;
28960;SDS011;16068;42.896;20.868;2023-07-31T03:40:30;9.07;;;4.75;;
28960;SDS011;16068;42.896;20.868;2023-07-31T03:43:18;17.83;;;6.32;;
28960;SDS011;16068;42.896;20.868;2023-07-31T03:46:04;8.60;;;5.03;;
28960;SDS011;16068;42.896;20.868;2023-07-31T03:48:50;11.65;;;4.82;;
28960;SDS011;16068;42.896;20.868;2023-07-31T03:51:36;7.28;;;4.90;;
28960;SDS011;16068;42.896;20.868;2023-07-31T03:54:22;15.10;;;5.43;;
28960;SDS011;16068;42.896;20.868;2023-07-31T03:57:08;14.35;;;5.47;;
28960;SDS011;16068;42.896;20.868;2023-07-31T03:59:54;13.30;;;5.63;;
28960;SDS011;16068;42.896;20.868;2023-07-31T04:02:40;15.05;;;4.65;;
28960;SDS011;16068;42.896;20.868;2023-07-31T04:05:26;8.20;;;5.00;;
28960;SDS011;16068;42.896;20.868;2023-07-31T04:08:12;6.60;;;4.28;;
28960;SDS011;16068;42.896;20.868;2023-07-31T04:11:00;10.55;;;4.85;;
28960;SDS011;16068;42.896;20.868;2023-07-31T04:13:46;11.65;;;4.68;;
28960;SDS011;16068;42.896;20.868;2023-07-31T04:16:32;12.55;;;5.00;;
28960;SDS011;16068;42.896;20.868;2023-07-31T04:19:18;20.63;;;6.50;;
28960;SDS011;16068;42.896;20.868;2023-07-31T04:22:04;12.98;;;5.28;;
28960;SDS011;16068;42.896;20.868;2023-07-31T04:24:50;12.60;;;4.75;;
28960;SDS011;16068;42.896;20.868;2023-07-31T04:27:36;9.13;;;4.60;;
28960;SDS011;16068;42.896;20.868;2023-07-31T04:30:22;8.10;;;4.28;;
28960;SDS011;16068;42.896;20.868;2023-07-31T04:33:07;11.27;;;4.45;;
28960;SDS011;16068;42.896;20.868;2023-07-31T04:35:53;12.10;;;5.38;;
28960;SDS011;16068;42.896;20.868;2023-07-31T04:38:40;6.72;;;4.47;;
28960;SDS011;16068;42.896;20.868;2023-07-31T04:41:27;9.82;;;4.65;;
28960;SDS011;16068;42.896;20.868;2023-07-31T04:44:13;9.00;;;4.38;;
28960;SDS011;16068;42.896;20.868;2023-07-31T04:46:59;9.50;;;4.70;;
28960;SDS011;16068;42.896;20.868;2023-07-31T04:49:45;5.80;;;3.97;;
28960;SDS011;16068;42.896;20.868;2023-07-31T04:52:31;7.60;;;4.43;;
28960;SDS011;16068;42.896;20.868;2023-07-31T04:55:17;8.85;;;4.57;;
28960;SDS011;16068;42.896;20.868;2023-07-31T04:58:03;8.57;;;4.80;;
28960;SDS011;16068;42.896;20.868;2023-07-31T05:00:49;9.00;;;4.70;;
28960;SDS011;16068;42.896;20.868;2023-07-31T05:03:35;7.72;;;4.80;;
28960;SDS011;16068;42.896;20.868;2023-07-31T05:06:21;12.35;;;4.55;;
28960;SDS011;16068;42.896;20.868;2023-07-31T05:09:07;13.68;;;4.40;;
28960;SDS011;16068;42.896;20.868;2023-07-31T05:11:55;9.52;;;5.13;;
28960;SDS011;16068;42.896;20.868;2023-07-31T05:14:41;10.52;;;4.82;;
28960;SDS011;16068;42.896;20.868;2023-07-31T05:17:27;9.35;;;4.20;;
28960;SDS011;16068;42.896;20.868;2023-07-31T05:20:13;6.13;;;4.50;;
28960;SDS011;16068;42.896;20.868;2023-07-31T05:23:00;9.05;;;4.38;;
28960;SDS011;16068;42.896;20.868;2023-07-31T05:25:48;5.75;;;4.15;;
28960;SDS011;16068;42.896;20.868;2023-07-31T05:28:35;25.55;;;17.63;;
28960;SDS011;16068;42.896;20.868;2023-07-31T05:31:22;24.73;;;18.05;;
28960;SDS011;16068;42.896;20.868;2023-07-31T05:34:09;52.45;;;35.38;;
28960;SDS011;16068;42.896;20.868;2023-07-31T05:36:55;30.63;;;23.10;;
28960;SDS011;16068;42.896;20.868;2023-07-31T05:39:41;13.00;;;8.55;;
28960;SDS011;16068;42.896;20.868;2023-07-31T05:42:31;21.73;;;15.60;;
28960;SDS011;16068;42.896;20.868;2023-07-31T05:45:17;52.72;;;39.72;;
28960;SDS011;16068;42.896;20.868;2023-07-31T05:48:09;61.30;;;47.30;;
28960;SDS011;16068;42.896;20.868;2023-07-31T05:50:56;49.95;;;36.88;;
28960;SDS011;16068;42.896;20.868;2023-07-31T05:53:42;62.08;;;45.15;;
28960;SDS011;16068;42.896;20.868;2023-07-31T05:56:30;21.77;;;16.35;;
28960;SDS011;16068;42.896;20.868;2023-07-31T05:59:16;13.40;;;10.10;;
28960;SDS011;16068;42.896;20.868;2023-07-31T06:02:02;13.45;;;7.80;;
28960;SDS011;16068;42.896;20.868;2023-07-31T06:04:49;7.45;;;6.15;;
28960;SDS011;16068;42.896;20.868;2023-07-31T06:07:35;10.85;;;6.25;;
28960;SDS011;16068;42.896;20.868;2023-07-31T06:10:21;6.88;;;5.10;;
28960;SDS011;16068;42.896;20.868;2023-07-31T06:13:08;7.82;;;4.65;;
28960;SDS011;16068;42.896;20.868;2023-07-31T06:15:56;8.15;;;4.25;;
28960;SDS011;16068;42.896;20.868;2023-07-31T06:18:42;5.28;;;4.00;;
28960;SDS011;16068;42.896;20.868;2023-07-31T06:21:29;5.53;;;4.13;;
28960;SDS011;16068;42.896;20.868;2023-07-31T06:24:15;6.38;;;4.00;;
28960;SDS011;16068;42.896;20.868;2023-07-31T06:27:04;8.48;;;5.20;;
28960;SDS011;16068;42.896;20.868;2023-07-31T06:29:51;6.97;;;4.60;;
28960;SDS011;16068;42.896;20.868;2023-07-31T06:32:38;6.82;;;4.05;;
28960;SDS011;16068;42.896;20.868;2023-07-31T06:35:26;6.03;;;4.07;;
28960;SDS011;16068;42.896;20.868;2023-07-31T06:38:14;7.13;;;3.58;;
28960;SDS011;16068;42.896;20.868;2023-07-31T06:41:00;4.88;;;3.05;;
28960;SDS011;16068;42.896;20.868;2023-07-31T06:43:46;5.55;;;3.50;;
28960;SDS011;16068;42.896;20.868;2023-07-31T06:46:32;6.53;;;3.17;;
28960;SDS011;16068;42.896;20.868;2023-07-31T06:49:20;8.15;;;3.30;;
28960;SDS011;16068;42.896;20.868;2023-07-31T06:52:07;6.53;;;3.50;;
28960;SDS011;16068;42.896;20.868;2023-07-31T06:55:04;10.77;;;3.55;;
28960;SDS011;16068;42.896;20.868;2023-07-31T06:58:10;5.22;;;3.17;;
28960;SDS011;16068;42.896;20.868;2023-07-31T07:01:02;5.65;;;3.15;;
28960;SDS011;16068;42.896;20.868;2023-07-31T07:03:48;6.65;;;3.17;;
28960;SDS011;16068;42.896;20.868;2023-07-31T07:06:38;4.75;;;2.90;;
28960;SDS011;16068;42.896;20.868;2023-07-31T07:09:25;3.78;;;2.60;;
28960;SDS011;16068;42.896;20.868;2023-07-31T07:12:15;5.93;;;2.88;;
28960;SDS011;16068;42.896;20.868;2023-07-31T07:15:01;8.00;;;2.88;;
28960;SDS011;16068;42.896;20.868;2023-07-31T07:17:48;6.60;;;2.75;;
28960;SDS011;16068;42.896;20.868;2023-07-31T07:20:34;5.95;;;3.05;;
28960;SDS011;16068;42.896;20.868;2023-07-31T07:23:21;3.65;;;2.75;;
28960;SDS011;16068;42.896;20.868;2023-07-31T07:26:07;8.10;;;3.40;;
28960;SDS011;16068;42.896;20.868;2023-07-31T07:28:53;3.17;;;2.70;;
28960;SDS011;16068;42.896;20.868;2023-07-31T07:31:39;6.18;;;3.03;;
28960;SDS011;16068;42.896;20.868;2023-07-31T07:34:26;7.15;;;3.00;;
28960;SDS011;16068;42.896;20.868;2023-07-31T07:37:13;2.80;;;2.17;;
28960;SDS011;16068;42.896;20.868;2023-07-31T07:39:59;4.18;;;2.70;;
28960;SDS011;16068;42.896;20.868;2023-07-31T07:42:45;2.28;;;2.05;;
28960;SDS011;16068;42.896;20.868;2023-07-31T07:45:31;2.60;;;1.70;;
28960;SDS011;16068;42.896;20.868;2023-07-31T07:48:17;5.75;;;2.33;;
28960;SDS011;16068;42.896;20.868;2023-07-31T07:51:03;5.55;;;2.03;;
28960;SDS011;16068;42.896;20.868;2023-07-31T07:53:48;4.43;;;1.90;;
28960;SDS011;16068;42.896;20.868;2023-07-31T07:56:34;4.00;;;1.83;;
28960;SDS011;16068;42.896;20.868;2023-07-31T07:59:22;8.05;;;2.47;;
28960;SDS011;16068;42.896;20.868;2023-07-31T08:02:09;5.45;;;2.20;;
28960;SDS011;16068;42.896;20.868;2023-07-31T08:04:55;4.32;;;2.10;;
28960;SDS011;16068;42.896;20.868;2023-07-31T08:07:41;115.70;;;8.45;;
28960;SDS011;16068;42.896;20.868;2023-07-31T08:10:27;4.15;;;2.13;;
28960;SDS011;16068;42.896;20.868;2023-07-31T08:13:13;3.15;;;1.70;;
28960;SDS011;16068;42.896;20.868;2023-07-31T08:15:59;4.50;;;2.20;;
28960;SDS011;16068;42.896;20.868;2023-07-31T08:18:46;3.03;;;1.80;;
28960;SDS011;16068;42.896;20.868;2023-07-31T08:21:32;5.18;;;2.58;;
28960;SDS011;16068;42.896;20.868;2023-07-31T08:24:18;4.57;;;1.90;;
28960;SDS011;16068;42.896;20.868;2023-07-31T08:27:05;5.75;;;2.30;;
28960;SDS011;16068;42.896;20.868;2023-07-31T08:29:52;4.28;;;2.50;;
28960;SDS011;16068;42.896;20.868;2023-07-31T08:32:39;7.88;;;2.40;;
28960;SDS011;16068;42.896;20.868;2023-07-31T08:35:26;3.63;;;2.35;;
28960;SDS011;16068;42.896;20.868;2023-07-31T08:38:14;9.50;;;2.30;;
28960;SDS011;16068;42.896;20.868;2023-07-31T08:41:04;2.78;;;2.00;;
28960;SDS011;16068;42.896;20.868;2023-07-31T08:43:51;3.25;;;2.42;;
28960;SDS011;16068;42.896;20.868;2023-07-31T08:46:38;3.10;;;1.85;;
28960;SDS011;16068;42.896;20.868;2023-07-31T08:49:26;4.28;;;3.17;;
28960;SDS011;16068;42.896;20.868;2023-07-31T08:52:23;18.77;;;13.38;;
28960;SDS011;16068;42.896;20.868;2023-07-31T08:55:10;5.55;;;4.15;;
28960;SDS011;16068;42.896;20.868;2023-07-31T08:57:57;12.63;;;5.18;;
28960;SDS011;16068;42.896;20.868;2023-07-31T09:00:43;7.18;;;5.28;;
28960;SDS011;16068;42.896;20.868;2023-07-31T09:03:33;7.95;;;2.58;;
28960;SDS011;16068;42.896;20.868;2023-07-31T09:06:21;6.53;;;2.67;;
28960;SDS011;16068;42.896;20.868;2023-07-31T09:09:12;3.25;;;2.50;;
28960;SDS011;16068;42.896;20.868;2023-07-31T09:11:59;3.47;;;2.38;;
28960;SDS011;16068;42.896;20.868;2023-07-31T09:14:48;4.65;;;2.00;;
28960;SDS011;16068;42.896;20.868;2023-07-31T09:17:36;2.72;;;2.08;;
28960;SDS011;16068;42.896;20.868;2023-07-31T09:20:24;4.57;;;2.05;;
28960;SDS011;16068;42.896;20.868;2023-07-31T09:23:12;2.70;;;1.80;;
28960;SDS011;16068;42.896;20.868;2023-07-31T09:26:00;6.93;;;2.30;;
28960;SDS011;16068;42.896;20.868;2023-07-31T09:28:47;8.35;;;1.98;;
28960;SDS011;16068;42.896;20.868;2023-07-31T09:31:34;7.80;;;2.35;;
28960;SDS011;16068;42.896;20.868;2023-07-31T09:34:29;2.00;;;1.80;;
28960;SDS011;16068;42.896;20.868;2023-07-31T09:37:16;5.18;;;1.90;;
28960;SDS011;16068;42.896;20.868;2023-07-31T09:40:03;3.72;;;2.15;;
28960;SDS011;16068;42.896;20.868;2023-07-31T09:42:49;2.78;;;2.15;;
28960;SDS011;16068;42.896;20.868;2023-07-31T09:45:35;4.57;;;2.40;;
28960;SDS011;16068;42.896;20.868;2023-07-31T09:48:26;4.32;;;2.00;;
28960;SDS011;16068;42.896;20.868;2023-07-31T09:51:13;5.10;;;2.45;;
28960;SDS011;16068;42.896;20.868;2023-07-31T09:53:59;6.15;;;2.38;;
28960;SDS011;16068;42.896;20.868;2023-07-31T09:56:49;4.88;;;2.35;;
28960;SDS011;16068;42.896;20.868;2023-07-31T09:59:35;3.40;;;1.95;;
28960;SDS011;16068;42.896;20.868;2023-07-31T10:02:22;7.05;;;2.20;;
28960;SDS011;16068;42.896;20.868;2023-07-31T10:05:08;5.47;;;2.28;;
28960;SDS011;16068;42.896;20.868;2023-07-31T10:07:55;2.78;;;2.33;;
28960;SDS011;16068;42.896;20.868;2023-07-31T10:10:44;2.38;;;2.00;;
28960;SDS011;16068;42.896;20.868;2023-07-31T10:13:31;3.47;;;1.92;;
28960;SDS011;16068;42.896;20.868;2023-07-31T10:16:18;5.65;;;2.22;;
28960;SDS011;16068;42.896;20.868;2023-07-31T10:19:07;6.93;;;2.85;;
28960;SDS011;16068;42.896;20.868;2023-07-31T10:21:54;2.63;;;1.90;;
28960;SDS011;16068;42.896;20.868;2023-07-31T10:24:43;2.05;;;1.85;;
28960;SDS011;16068;42.896;20.868;2023-07-31T10:27:29;3.45;;;2.00;;
28960;SDS011;16068;42.896;20.868;2023-07-31T10:30:15;5.55;;;2.20;;
28960;SDS011;16068;42.896;20.868;2023-07-31T10:33:08;6.13;;;1.98;;
28960;SDS011;16068;42.896;20.868;2023-07-31T10:39:36;3.97;;;2.00;;
28960;SDS011;16068;42.896;20.868;2023-07-31T10:45:43;2.97;;;2.08;;
28960;SDS011;16068;42.896;20.868;2023-07-31T10:48:33;7.20;;;2.30;;
28960;SDS011;16068;42.896;20.868;2023-07-31T10:51:19;6.15;;;2.33;;
28960;SDS011;16068;42.896;20.868;2023-07-31T10:54:12;4.75;;;1.83;;
28960;SDS011;16068;42.896;20.868;2023-07-31T10:57:00;3.45;;;1.75;;
28960;SDS011;16068;42.896;20.868;2023-07-31T10:59:46;4.88;;;1.90;;
28960;SDS011;16068;42.896;20.868;2023-07-31T11:02:33;5.68;;;1.90;;
28960;SDS011;16068;42.896;20.868;2023-07-31T11:05:19;1.95;;;1.55;;
28960;SDS011;16068;42.896;20.868;2023-07-31T11:08:15;4.53;;;1.90;;
28960;SDS011;16068;42.896;20.868;2023-07-31T11:11:07;3.03;;;1.77;;
28960;SDS011;16068;42.896;20.868;2023-07-31T11:13:53;5.95;;;2.05;;
28960;SDS011;16068;42.896;20.868;2023-07-31T11:16:40;6.28;;;2.28;;
28960;SDS011;16068;42.896;20.868;2023-07-31T11:19:27;5.55;;;1.73;;
28960;SDS011;16068;42.896;20.868;2023-07-31T11:22:14;4.47;;;2.10;;
28960;SDS011;16068;42.896;20.868;2023-07-31T11:25:01;5.38;;;1.38;;
28960;SDS011;16068;42.896;20.868;2023-07-31T11:27:49;3.60;;;1.80;;
28960;SDS011;16068;42.896;20.868;2023-07-31T11:30:39;2.95;;;2.00;;
28960;SDS011;16068;42.896;20.868;2023-07-31T11:33:26;4.15;;;1.60;;
28960;SDS011;16068;42.896;20.868;2023-07-31T11:36:19;5.78;;;1.58;;
28960;SDS011;16068;42.896;20.868;2023-07-31T11:41:59;2.58;;;1.90;;
28960;SDS011;16068;42.896;20.868;2023-07-31T11:44:45;2.55;;;2.20;;
28960;SDS011;16068;42.896;20.868;2023-07-31T11:47:33;3.65;;;1.88;;
28960;SDS011;16068;42.896;20.868;2023-07-31T11:50:20;6.25;;;2.03;;
28960;SDS011;16068;42.896;20.868;2023-07-31T11:53:07;2.30;;;1.65;;
28960;SDS011;16068;42.896;20.868;2023-07-31T11:55:54;6.85;;;1.70;;
28960;SDS011;16068;42.896;20.868;2023-07-31T11:58:40;2.17;;;1.60;;
28960;SDS011;16068;42.896;20.868;2023-07-31T12:01:26;3.85;;;1.70;;
28960;SDS011;16068;42.896;20.868;2023-07-31T12:04:16;1.70;;;1.60;;
28960;SDS011;16068;42.896;20.868;2023-07-31T12:07:02;1.50;;;1.40;;
28960;SDS011;16068;42.896;20.868;2023-07-31T12:09:54;1.90;;;1.70;;
28960;SDS011;16068;42.896;20.868;2023-07-31T12:12:40;1.83;;;1.55;;
28960;SDS011;16068;42.896;20.868;2023-07-31T12:15:33;5.75;;;3.00;;
28960;SDS011;16068;42.896;20.868;2023-07-31T12:18:27;11.02;;;9.05;;
28960;SDS011;16068;42.896;20.868;2023-07-31T12:21:14;37.15;;;30.67;;
28960;SDS011;16068;42.896;20.868;2023-07-31T12:24:01;8.30;;;6.28;;
28960;SDS011;16068;42.896;20.868;2023-07-31T12:26:48;6.28;;;4.95;;
28960;SDS011;16068;42.896;20.868;2023-07-31T12:29:34;19.30;;;14.98;;
28960;SDS011;16068;42.896;20.868;2023-07-31T12:32:27;11.27;;;7.82;;
28960;SDS011;16068;42.896;20.868;2023-07-31T12:35:15;3.20;;;2.90;;
28960;SDS011;16068;42.896;20.868;2023-07-31T12:38:01;4.30;;;2.45;;
28960;SDS011;16068;42.896;20.868;2023-07-31T12:40:48;2.80;;;1.88;;
28960;SDS011;16068;42.896;20.868;2023-07-31T12:43:34;3.60;;;2.20;;
28960;SDS011;16068;42.896;20.868;2023-07-31T12:46:21;3.25;;;2.22;;
28960;SDS011;16068;42.896;20.868;2023-07-31T12:49:07;2.47;;;1.70;;
28960;SDS011;16068;42.896;20.868;2023-07-31T12:51:53;5.45;;;1.73;;
28960;SDS011;16068;42.896;20.868;2023-07-31T12:54:39;5.72;;;2.08;;
28960;SDS011;16068;42.896;20.868;2023-07-31T12:57:25;4.65;;;2.47;;
28960;SDS011;16068;42.896;20.868;2023-07-31T13:00:12;2.95;;;1.50;;
28960;SDS011;16068;42.896;20.868;2023-07-31T13:02:59;5.53;;;1.70;;
28960;SDS011;16068;42.896;20.868;2023-07-31T13:05:46;1.60;;;1.50;;
28960;SDS011;16068;42.896;20.868;2023-07-31T13:08:32;1.90;;;1.52;;
28960;SDS011;16068;42.896;20.868;2023-07-31T13:11:18;2.25;;;1.50;;
28960;SDS011;16068;42.896;20.868;2023-07-31T13:14:04;2.03;;;1.55;;
28960;SDS011;16068;42.896;20.868;2023-07-31T13:16:50;4.38;;;1.67;;
28960;SDS011;16068;42.896;20.868;2023-07-31T13:19:36;1.67;;;1.17;;
28960;SDS011;16068;42.896;20.868;2023-07-31T13:22:22;2.28;;;1.40;;
28960;SDS011;16068;42.896;20.868;2023-07-31T13:25:08;3.13;;;1.25;;
28960;SDS011;16068;42.896;20.868;2023-07-31T13:27:54;2.13;;;1.50;;
28960;SDS011;16068;42.896;20.868;2023-07-31T13:30:41;1.50;;;1.13;;
28960;SDS011;16068;42.896;20.868;2023-07-31T13:33:28;13.40;;;1.40;;
28960;SDS011;16068;42.896;20.868;2023-07-31T13:36:25;1.58;;;1.40;;
28960;SDS011;16068;42.896;20.868;2023-07-31T13:39:11;4.63;;;1.80;;
28960;SDS011;16068;42.896;20.868;2023-07-31T13:41:57;4.13;;;1.90;;
28960;SDS011;16068;42.896;20.868;2023-07-31T13:44:42;3.70;;;1.55;;
28960;SDS011;16068;42.896;20.868;2023-07-31T13:47:28;10.23;;;1.45;;
28960;SDS011;16068;42.896;20.868;2023-07-31T13:50:15;2.15;;;1.30;;
28960;SDS011;16068;42.896;20.868;2023-07-31T13:53:02;1.90;;;1.27;;
28960;SDS011;16068;42.896;20.868;2023-07-31T13:55:48;1.85;;;1.10;;
28960;SDS011;16068;42.896;20.868;2023-07-31T13:58:35;2.25;;;1.38;;
28960;SDS011;16068;42.896;20.868;2023-07-31T14:01:21;2.72;;;1.10;;
28960;SDS011;16068;42.896;20.868;2023-07-31T14:04:06;1.45;;;0.93;;
28960;SDS011;16068;42.896;20.868;2023-07-31T14:06:53;2.88;;;1.00;;
28960;SDS011;16068;42.896;20.868;2023-07-31T14:09:40;1.33;;;1.00;;
28960;SDS011;16068;42.896;20.868;2023-07-31T14:12:26;1.48;;;1.02;;
28960;SDS011;16068;42.896;20.868;2023-07-31T14:15:27;1.60;;;1.30;;
28960;SDS011;16068;42.896;20.868;2023-07-31T14:18:14;1.70;;;0.90;;
28960;SDS011;16068;42.896;20.868;2023-07-31T14:21:00;2.60;;;1.20;;
28960;SDS011;16068;42.896;20.868;2023-07-31T14:23:46;5.07;;;1.33;;
28960;SDS011;16068;42.896;20.868;2023-07-31T14:26:32;14.15;;;6.45;;
28960;SDS011;16068;42.896;20.868;2023-07-31T14:29:18;9.48;;;6.03;;
28960;SDS011;16068;42.896;20.868;2023-07-31T14:32:04;12.00;;;10.60;;
28960;SDS011;16068;42.896;20.868;2023-07-31T14:34:52;10.93;;;2.63;;
28960;SDS011;16068;42.896;20.868;2023-07-31T14:37:39;8.38;;;6.50;;
28960;SDS011;16068;42.896;20.868;2023-07-31T14:40:26;15.35;;;13.68;;
28960;SDS011;16068;42.896;20.868;2023-07-31T14:43:12;4.70;;;4.18;;
28960;SDS011;16068;42.896;20.868;2023-07-31T14:45:58;6.43;;;3.85;;
28960;SDS011;16068;42.896;20.868;2023-07-31T14:48:46;1.15;;;1.10;;
28960;SDS011;16068;42.896;20.868;2023-07-31T14:51:32;3.83;;;1.20;;
28960;SDS011;16068;42.896;20.868;2023-07-31T14:54:18;10.68;;;1.20;;
28960;SDS011;16068;42.896;20.868;2023-07-31T14:57:04;2.78;;;1.30;;
28960;SDS011;16068;42.896;20.868;2023-07-31T14:59:52;12.20;;;2.47;;
28960;SDS011;16068;42.896;20.868;2023-07-31T15:02:38;18.92;;;3.83;;
28960;SDS011;16068;42.896;20.868;2023-07-31T15:05:26;13.82;;;3.05;;
28960;SDS011;16068;42.896;20.868;2023-07-31T15:08:11;5.88;;;2.97;;
28960;SDS011;16068;42.896;20.868;2023-07-31T15:10:58;3.78;;;1.77;;
28960;SDS011;16068;42.896;20.868;2023-07-31T15:13:44;2.65;;;1.42;;
28960;SDS011;16068;42.896;20.868;2023-07-31T15:16:31;1.90;;;1.15;;
28960;SDS011;16068;42.896;20.868;2023-07-31T15:19:19;24.63;;;19.30;;
28960;SDS011;16068;42.896;20.868;2023-07-31T15:22:06;9.05;;;5.45;;
28960;SDS011;16068;42.896;20.868;2023-07-31T15:24:53;4.15;;;3.45;;
28960;SDS011;16068;42.896;20.868;2023-07-31T15:27:39;13.52;;;7.80;;
28960;SDS011;16068;42.896;20.868;2023-07-31T15:30:25;3.55;;;1.73;;
28960;SDS011;16068;42.896;20.868;2023-07-31T15:33:11;2.45;;;1.67;;
28960;SDS011;16068;42.896;20.868;2023-07-31T15:35:58;3.08;;;2.17;;
28960;SDS011;16068;42.896;20.868;2023-07-31T15:38:45;3.30;;;1.50;;
28960;SDS011;16068;42.896;20.868;2023-07-31T15:41:32;2.38;;;1.38;;
28960;SDS011;16068;42.896;20.868;2023-07-31T15:44:18;3.70;;;1.40;;
28960;SDS011;16068;42.896;20.868;2023-07-31T15:47:05;1.85;;;1.40;;
28960;SDS011;16068;42.896;20.868;2023-07-31T15:49:51;5.18;;;1.45;;
28960;SDS011;16068;42.896;20.868;2023-07-31T15:52:37;1.67;;;1.40;;
28960;SDS011;16068;42.896;20.868;2023-07-31T15:55:24;1.63;;;1.23;;
28960;SDS011;16068;42.896;20.868;2023-07-31T15:58:12;3.55;;;1.60;;
28960;SDS011;16068;42.896;20.868;2023-07-31T16:01:03;3.67;;;1.48;;
28960;SDS011;16068;42.896;20.868;2023-07-31T16:03:49;2.03;;;1.38;;
28960;SDS011;16068;42.896;20.868;2023-07-31T16:06:38;4.00;;;1.30;;
28960;SDS011;16068;42.896;20.868;2023-07-31T16:09:24;1.50;;;1.40;;
28960;SDS011;16068;42.896;20.868;2023-07-31T16:12:10;5.30;;;1.73;;
28960;SDS011;16068;42.896;20.868;2023-07-31T16:14:56;2.75;;;1.70;;
28960;SDS011;16068;42.896;20.868;2023-07-31T16:17:43;1.60;;;1.38;;
28960;SDS011;16068;42.896;20.868;2023-07-31T16:20:29;3.65;;;1.73;;
28960;SDS011;16068;42.896;20.868;2023-07-31T16:23:15;6.15;;;1.52;;
28960;SDS011;16068;42.896;20.868;2023-07-31T16:26:01;4.93;;;1.98;;
28960;SDS011;16068;42.896;20.868;2023-07-31T16:28:47;3.67;;;2.10;;
28960;SDS011;16068;42.896;20.868;2023-07-31T16:31:33;4.40;;;1.98;;
28960;SDS011;16068;42.896;20.868;2023-07-31T16:34:39;4.72;;;2.83;;
28960;SDS011;16068;42.896;20.868;2023-07-31T16:37:25;1.90;;;1.70;;
28960;SDS011;16068;42.896;20.868;2023-07-31T16:40:12;13.57;;;7.35;;